createdAt,value
2019-02-18T00:00:45.564Z,32.90
2019-02-18T00:03:14.253Z,33.63
2019-02-18T00:05:42.934Z,32.58
2019-02-18T00:08:11.661Z,31.15
2019-02-18T00:10:40.413Z,34.53
2019-02-18T00:13:09.097Z,31.57
2019-02-18T00:15:37.795Z,31.55
2019-02-18T00:18:06.498Z,32.10
2019-02-18T00:20:35.207Z,33.35
2019-02-18T00:23:03.986Z,28.83
2019-02-18T00:25:32.779Z,28.75
2019-02-18T00:28:01.531Z,33.80
2019-02-18T00:30:30.221Z,29.07
2019-02-18T00:32:58.873Z,29.30
2019-02-18T00:35:27.501Z,31.12
2019-02-18T00:37:56.143Z,29.80
2019-02-18T00:40:24.823Z,31.00
2019-02-18T00:42:53.518Z,31.62
2019-02-18T00:45:22.211Z,31.42
2019-02-18T00:47:50.861Z,31.40
2019-02-18T00:50:19.537Z,32.13
2019-02-18T00:52:48.313Z,32.20
2019-02-18T00:55:17.036Z,32.05
2019-02-18T00:57:45.740Z,29.32
2019-02-18T01:00:14.845Z,37.50
2019-02-18T01:02:43.504Z,28.80
2019-02-18T01:05:12.185Z,32.20
2019-02-18T01:07:40.898Z,32.20
2019-02-18T01:10:09.780Z,33.28
2019-02-18T01:12:38.578Z,33.98
2019-02-18T01:15:08.041Z,33.20
2019-02-18T01:17:36.731Z,30.50
2019-02-18T01:20:05.845Z,29.72
2019-02-18T01:22:34.499Z,33.40
2019-02-18T01:25:03.212Z,31.82
2019-02-18T01:27:31.788Z,32.98
2019-02-18T01:30:00.587Z,27.75
2019-02-18T01:32:29.290Z,38.23
2019-02-18T01:34:57.980Z,33.35
2019-02-18T01:37:26.658Z,40.33
2019-02-18T01:39:55.338Z,33.78
2019-02-18T01:42:23.947Z,33.10
2019-02-18T01:44:52.634Z,32.88
2019-02-18T01:47:21.280Z,31.52
2019-02-18T01:49:50.029Z,34.45
2019-02-18T01:52:18.638Z,35.88
2019-02-18T01:54:47.359Z,31.60
2019-02-18T01:57:15.936Z,29.60
2019-02-18T01:59:44.681Z,39.35
2019-02-18T02:02:13.320Z,30.62
2019-02-18T02:04:41.988Z,32.03
2019-02-18T02:07:10.746Z,33.08
2019-02-18T02:09:39.406Z,34.15
2019-02-18T02:12:08.093Z,33.10
2019-02-18T02:14:36.783Z,37.25
2019-02-18T02:17:05.495Z,34.92
2019-02-18T02:19:34.161Z,34.67
2019-02-18T02:22:02.934Z,32.45
2019-02-18T02:24:31.717Z,36.17
2019-02-18T02:27:00.494Z,35.92
2019-02-18T02:29:29.161Z,38.42
2019-02-18T02:31:57.743Z,31.90
2019-02-18T02:34:26.332Z,34.33
2019-02-18T02:36:55.120Z,35.48
2019-02-18T02:39:23.882Z,39.23
2019-02-18T02:41:52.596Z,37.80
2019-02-18T02:44:21.302Z,37.13
2019-02-18T02:46:50.090Z,35.05
2019-02-18T02:49:18.779Z,37.63
2019-02-18T02:51:47.464Z,34.78
2019-02-18T02:54:16.140Z,36.48
2019-02-18T02:56:44.965Z,34.98
2019-02-18T02:59:13.750Z,31.12
2019-02-18T03:01:42.426Z,40.38
2019-02-18T03:04:11.103Z,40.03
2019-02-18T03:06:39.844Z,36.63
2019-02-18T03:09:08.941Z,40.95
2019-02-18T03:11:37.666Z,37.95
2019-02-18T03:14:06.385Z,42.33
2019-02-18T03:16:35.132Z,38.10
2019-02-18T03:19:03.806Z,38.83
2019-02-18T03:21:32.623Z,37.70
2019-02-18T03:24:01.323Z,35.03
2019-02-18T03:26:30.003Z,36.30
2019-02-18T03:29:17.485Z,32.50
2019-02-18T03:31:46.147Z,34.23
2019-02-18T03:34:23.762Z,35.10
2019-02-18T03:36:52.474Z,31.55
2019-02-18T03:39:21.149Z,32.95
2019-02-18T03:41:49.820Z,28.05
2019-02-18T03:44:18.525Z,34.10
2019-02-18T03:46:47.269Z,38.53
2019-02-18T03:49:16.027Z,34.23
2019-02-18T03:51:44.692Z,37.88
2019-02-18T03:54:13.397Z,31.25
2019-02-18T03:56:42.100Z,41.77
2019-02-18T03:59:10.727Z,42.58
2019-02-18T04:01:39.627Z,38.53
2019-02-18T04:04:08.285Z,45.90
2019-02-18T04:06:36.880Z,36.80
2019-02-18T04:09:05.997Z,35.17
2019-02-18T04:11:34.657Z,36.28
2019-02-18T04:14:03.422Z,33.90
2019-02-18T04:16:32.116Z,35.17
2019-02-18T04:19:00.716Z,36.40
2019-02-18T04:21:29.431Z,31.75
2019-02-18T04:23:58.175Z,30.27
2019-02-18T04:26:26.889Z,32.17
2019-02-18T04:28:55.580Z,30.68
2019-02-18T04:31:24.287Z,32.80
2019-02-18T04:33:53.099Z,30.52
2019-02-18T04:36:21.914Z,31.60
2019-02-18T04:38:53.986Z,35.55
2019-02-18T04:41:21.142Z,35.00
2019-02-18T04:43:49.897Z,31.45
2019-02-18T04:46:18.650Z,36.80
2019-02-18T04:48:47.334Z,31.50
2019-02-18T04:51:16.062Z,32.85
2019-02-18T04:53:45.053Z,29.42
2019-02-18T04:56:13.776Z,27.10
2019-02-18T04:58:42.439Z,31.02
2019-02-18T05:01:11.056Z,29.98
2019-02-18T05:03:39.763Z,28.90
2019-02-18T05:06:08.423Z,31.77
2019-02-18T05:08:37.126Z,30.75
2019-02-18T05:11:05.806Z,28.73
2019-02-18T05:13:34.546Z,32.73
2019-02-18T05:16:03.291Z,32.95
2019-02-18T05:18:32.016Z,32.65
2019-02-18T05:21:00.776Z,27.82
2019-02-18T05:23:29.422Z,28.73
2019-02-18T05:25:58.121Z,29.30
2019-02-18T05:28:26.692Z,32.65
2019-02-18T05:30:55.348Z,32.45
2019-02-18T05:33:23.964Z,30.43
2019-02-18T05:35:55.732Z,30.92
2019-02-18T05:38:25.565Z,28.00
2019-02-18T05:40:54.484Z,33.45
2019-02-18T05:43:23.499Z,32.93
2019-02-18T05:45:52.332Z,28.77
2019-02-18T05:48:21.071Z,33.33
2019-02-18T05:50:52.080Z,33.10
2019-02-18T05:53:21.003Z,32.45
2019-02-18T05:55:49.789Z,35.05
2019-02-18T05:58:18.533Z,36.15
2019-02-18T06:00:48.331Z,37.75
2019-02-18T06:03:17.165Z,33.25
2019-02-18T06:05:48.944Z,34.70
2019-02-18T06:08:17.896Z,36.77
2019-02-18T06:10:46.643Z,38.23
2019-02-18T06:13:15.426Z,38.50
2019-02-18T06:15:46.144Z,35.70
2019-02-18T06:35:04.324Z,35.60
2019-02-18T06:37:33.185Z,42.20
2019-02-18T06:40:02.057Z,42.40
2019-02-18T06:42:30.907Z,39.40
2019-02-18T06:45:33.682Z,41.90
2019-02-18T06:48:06.994Z,44.73
2019-02-18T06:50:35.731Z,34.92
2019-02-18T06:53:04.454Z,39.25
2019-02-18T06:55:33.227Z,37.73
2019-02-18T06:58:23.914Z,42.75
2019-02-18T07:00:57.725Z,37.20
2019-02-18T07:03:57.811Z,38.53
2019-02-18T07:07:03.535Z,37.08
2019-02-18T07:09:54.808Z,35.95
2019-02-18T07:12:27.084Z,40.38
2019-02-18T07:14:55.802Z,39.65
2019-02-18T07:17:24.638Z,40.92
2019-02-18T07:19:55.931Z,39.20
2019-02-18T07:22:24.767Z,41.53
2019-02-18T07:24:53.493Z,39.50
2019-02-18T07:27:22.349Z,43.13
2019-02-18T07:29:53.237Z,37.20
2019-02-18T07:35:33.774Z,43.05
2019-02-18T07:38:02.561Z,41.95
2019-02-18T07:40:31.310Z,40.78
2019-02-18T07:43:39.584Z,35.95
2019-02-18T07:46:08.410Z,31.95
2019-02-18T07:48:37.269Z,32.65
2019-02-18T08:22:57.535Z,23.35
2019-02-18T08:25:26.298Z,23.57
2019-02-18T08:27:54.942Z,20.88
2019-02-18T08:30:23.773Z,22.52
2019-02-18T08:32:52.453Z,24.87
2019-02-18T08:35:21.083Z,24.18
2019-02-18T08:37:49.803Z,26.60
2019-02-18T08:40:22.417Z,25.17
2019-02-18T08:42:48.848Z,23.15
2019-02-18T08:45:17.511Z,21.23
2019-02-18T08:47:46.225Z,25.00
2019-02-18T08:50:14.929Z,20.60
2019-02-18T08:52:43.642Z,23.45
2019-02-18T08:55:12.595Z,26.27
2019-02-18T08:57:41.294Z,22.02
2019-02-18T09:00:11.515Z,24.70
2019-02-18T09:02:40.211Z,22.77
2019-02-18T09:05:09.020Z,22.87
2019-02-18T09:07:37.741Z,22.27
2019-02-18T09:10:06.667Z,22.60
2019-02-18T09:12:35.343Z,24.00
2019-02-18T09:15:04.062Z,21.75
2019-02-18T09:17:32.748Z,24.40
2019-02-18T09:20:01.449Z,22.85
2019-02-18T09:22:47.646Z,20.63
2019-02-18T09:25:22.252Z,19.90
2019-02-18T09:27:51.762Z,22.67
2019-02-18T09:30:28.177Z,22.57
2019-02-18T09:32:56.876Z,19.10
2019-02-18T09:35:25.611Z,19.47
2019-02-18T09:37:54.205Z,23.20
2019-02-18T09:40:22.847Z,22.37
2019-02-18T09:42:51.478Z,21.60
2019-02-18T09:45:20.083Z,22.50
2019-02-18T09:47:48.713Z,22.33
2019-02-18T09:50:17.487Z,22.03
2019-02-18T09:52:46.199Z,20.37
2019-02-18T09:55:14.934Z,19.43
2019-02-18T09:57:43.606Z,18.17
2019-02-18T10:00:12.240Z,17.63
2019-02-18T10:02:40.950Z,15.73
2019-02-18T10:05:09.948Z,17.00
2019-02-18T10:07:38.662Z,14.13
2019-02-18T10:10:07.423Z,13.07
2019-02-18T10:12:36.113Z,14.63
2019-02-18T10:15:04.880Z,13.50
2019-02-18T10:17:33.563Z,12.43
2019-02-18T10:20:02.225Z,15.20
2019-02-18T10:22:30.913Z,16.97
2019-02-18T10:24:59.505Z,16.67
2019-02-18T10:27:28.180Z,15.17
2019-02-18T10:29:57.825Z,13.13
2019-02-18T10:32:26.589Z,15.13
2019-02-18T10:34:55.332Z,15.37
2019-02-18T10:37:24.113Z,18.37
2019-02-18T10:39:52.823Z,16.43
2019-02-18T10:42:21.497Z,14.77
2019-02-18T10:44:50.155Z,18.47
2019-02-18T10:47:19.125Z,18.00
2019-02-18T10:49:47.947Z,15.00
2019-02-18T10:52:16.606Z,16.87
2019-02-18T10:54:45.446Z,18.73
2019-02-18T10:57:14.193Z,14.83
2019-02-18T10:59:42.910Z,15.07
2019-02-18T11:02:11.950Z,16.53
2019-02-18T11:04:40.689Z,17.03
2019-02-18T11:07:09.377Z,14.33
2019-02-18T11:09:38.109Z,17.00
2019-02-18T11:12:06.702Z,13.90
2019-02-18T11:14:35.400Z,14.90
2019-02-18T11:17:04.096Z,17.60
2019-02-18T11:19:32.782Z,18.40
2019-02-18T11:22:01.455Z,16.20
2019-02-18T11:24:30.046Z,17.20
2019-02-18T11:26:58.831Z,16.60
2019-02-18T11:29:28.624Z,14.80
2019-02-18T11:31:57.427Z,19.53
2019-02-18T11:34:26.150Z,14.67
2019-02-18T11:36:54.879Z,15.43
2019-02-18T11:39:23.686Z,16.87
2019-02-18T11:41:52.422Z,15.73
2019-02-18T11:44:21.158Z,17.23
2019-02-18T11:46:49.833Z,18.70
2019-02-18T11:49:18.582Z,16.87
2019-02-18T11:51:47.223Z,18.10
2019-02-18T11:54:16.243Z,16.70
2019-02-18T11:56:45.059Z,15.03
2019-02-18T11:59:23.726Z,16.87
2019-02-18T12:01:44.073Z,15.50
2019-02-18T12:04:12.817Z,18.57
2019-02-18T12:06:41.591Z,19.07
2019-02-18T12:09:11.569Z,16.07
2019-02-18T12:11:40.321Z,18.13
2019-02-18T12:14:09.076Z,18.77
2019-02-18T12:16:37.813Z,15.27
2019-02-18T12:19:06.582Z,17.53
2019-02-18T12:21:35.288Z,15.73
2019-02-18T12:24:04.024Z,14.83
2019-02-18T12:26:33.087Z,13.77
2019-02-18T12:29:01.868Z,17.83
2019-02-18T12:31:30.636Z,17.63
2019-02-18T12:33:59.414Z,19.57
2019-02-18T12:36:28.106Z,14.30
2019-02-18T12:38:56.880Z,18.83
2019-02-18T12:41:25.906Z,17.30
2019-02-18T12:43:54.557Z,15.23
2019-02-18T12:46:23.268Z,16.73
2019-02-18T12:48:52.005Z,20.97
2019-02-18T12:51:20.746Z,13.97
2019-02-18T12:53:49.505Z,18.10
2019-02-18T12:56:18.317Z,13.13
2019-02-18T12:58:54.439Z,15.40
2019-02-18T13:01:17.619Z,18.33
2019-02-18T13:03:46.276Z,15.47
2019-02-18T13:06:15.024Z,18.33
2019-02-18T13:08:43.761Z,14.17
2019-02-18T13:11:12.531Z,17.97
2019-02-18T13:13:41.187Z,16.00
2019-02-18T13:16:10.281Z,15.93
2019-02-18T13:18:39.071Z,17.53
2019-02-18T13:21:07.800Z,15.97
2019-02-18T13:23:36.568Z,15.63
2019-02-18T13:26:05.257Z,15.10
2019-02-18T13:28:33.894Z,13.10
2019-02-18T13:31:02.687Z,16.80
2019-02-18T13:33:31.731Z,16.13
2019-02-18T13:36:00.510Z,15.10
2019-02-18T13:38:29.317Z,15.70
2019-02-18T13:40:58.146Z,17.13
2019-02-18T13:43:26.908Z,20.20
2019-02-18T13:45:55.634Z,16.80
2019-02-18T13:48:24.312Z,15.03
2019-02-18T13:50:53.070Z,15.37
2019-02-18T13:53:21.732Z,16.87
2019-02-18T13:55:50.455Z,14.97
2019-02-18T13:58:19.296Z,17.07
2019-02-18T14:00:48.129Z,15.23
2019-02-18T14:03:16.829Z,15.30
2019-02-18T14:05:45.776Z,15.70
2019-02-18T14:08:14.534Z,17.07
2019-02-18T14:10:43.246Z,14.27
2019-02-18T14:13:12.020Z,13.37
2019-02-18T14:15:40.837Z,15.10
2019-02-18T14:18:09.700Z,13.50
2019-02-18T14:20:38.810Z,14.80
2019-02-18T14:23:07.711Z,13.30
2019-02-18T14:25:36.437Z,14.60
2019-02-18T14:28:05.192Z,13.20
2019-02-18T14:30:34.030Z,14.07
2019-02-18T14:33:02.757Z,15.73
2019-02-18T14:35:31.833Z,10.87
2019-02-18T14:38:00.623Z,11.80
2019-02-18T14:40:29.479Z,12.20
2019-02-18T14:42:58.168Z,14.27
2019-02-18T14:45:27.002Z,13.80
2019-02-18T14:47:55.762Z,11.83
2019-02-18T14:50:24.509Z,10.23
2019-02-18T14:52:53.275Z,9.33
2019-02-18T14:55:21.948Z,11.37
2019-02-18T14:57:50.654Z,10.00
2019-02-18T15:00:23.580Z,10.17
2019-02-18T15:02:53.097Z,13.87
2019-02-18T15:05:22.133Z,9.60
2019-02-18T15:07:50.858Z,11.10
2019-02-18T15:10:19.651Z,10.30
2019-02-18T15:12:48.424Z,8.70
2019-02-18T15:15:17.194Z,8.57
2019-02-18T15:17:45.918Z,9.17
2019-02-18T15:20:14.679Z,12.23
2019-02-18T15:22:43.426Z,9.30
2019-02-18T15:25:12.240Z,11.53
2019-02-18T15:27:41.034Z,11.10
2019-02-18T15:30:11.246Z,12.57
2019-02-18T15:32:40.051Z,13.03
2019-02-18T15:35:08.837Z,14.73
2019-02-18T15:37:37.506Z,13.13
2019-02-18T15:40:06.636Z,11.80
2019-02-18T15:42:41.916Z,12.63
2019-02-18T15:45:05.746Z,13.10
2019-02-18T15:47:34.502Z,11.43
2019-02-18T15:50:03.368Z,9.60
2019-02-18T15:52:32.443Z,10.83
2019-02-18T15:55:01.192Z,10.53
2019-02-18T15:57:30.022Z,11.07
2019-02-18T15:59:58.758Z,11.53
2019-02-18T16:02:27.580Z,8.57
2019-02-18T16:04:56.419Z,7.77
2019-02-18T16:07:25.372Z,11.10
2019-02-18T16:09:54.153Z,12.43
2019-02-18T16:12:22.809Z,11.87
2019-02-18T16:14:51.470Z,10.70
2019-02-18T16:17:20.259Z,14.23
2019-02-18T16:19:49.008Z,11.97
2019-02-18T16:22:18.116Z,9.17
2019-02-18T16:24:46.916Z,11.30
2019-02-18T16:27:15.627Z,12.47
2019-02-18T16:29:44.487Z,11.10
2019-02-18T16:32:13.213Z,16.80
2019-02-18T16:34:41.922Z,18.30
2019-02-18T16:37:11.521Z,16.70
2019-02-18T16:39:40.257Z,16.80
2019-02-18T16:42:09.410Z,12.00
2019-02-18T16:44:38.213Z,15.30
2019-02-18T16:47:06.942Z,13.70
2019-02-18T16:49:36.007Z,17.07
2019-02-18T16:52:05.170Z,14.63
2019-02-18T16:54:33.916Z,14.33
2019-02-18T16:57:02.554Z,14.97
2019-02-18T16:59:31.337Z,19.87
2019-02-18T17:02:00.035Z,18.73
2019-02-18T17:04:28.763Z,15.07
2019-02-18T17:06:57.548Z,15.13
2019-02-18T17:09:26.289Z,24.83
2019-02-18T17:12:14.254Z,18.97
2019-02-18T17:14:43.026Z,17.87
2019-02-18T17:17:11.769Z,14.87
2019-02-18T17:19:40.938Z,19.33
2019-02-18T17:22:09.646Z,20.87
2019-02-18T17:24:38.389Z,20.00
2019-02-18T17:27:07.149Z,18.80
2019-02-18T17:29:35.834Z,12.53
2019-02-18T17:32:04.605Z,21.03
2019-02-18T17:34:33.373Z,19.10
2019-02-18T17:37:02.139Z,17.50
2019-02-18T17:39:30.907Z,18.63
2019-02-18T17:41:59.681Z,21.97
2019-02-18T17:44:28.441Z,21.63
2019-02-18T17:46:57.457Z,21.70
2019-02-18T17:49:26.166Z,16.57
2019-02-18T17:51:55.220Z,18.50
2019-02-18T17:54:23.909Z,19.33
2019-02-18T17:56:52.659Z,24.67
2019-02-18T17:59:21.391Z,23.27
2019-02-18T18:01:50.078Z,26.50
2019-02-18T18:04:18.848Z,24.93
2019-02-18T18:06:47.508Z,23.67
2019-02-18T18:09:17.101Z,19.30
2019-02-18T18:11:45.928Z,27.27
2019-02-18T18:14:14.657Z,20.70
2019-02-18T18:16:43.354Z,27.30
2019-02-18T18:19:12.092Z,28.00
2019-02-18T18:21:40.769Z,23.00
2019-02-18T18:24:09.430Z,19.13
2019-02-18T18:26:38.145Z,31.17
2019-02-18T18:29:06.960Z,21.53
2019-02-18T18:31:35.747Z,21.30
2019-02-18T18:34:04.472Z,16.33
2019-02-18T18:36:33.144Z,21.17
2019-02-18T18:39:02.259Z,18.30
2019-02-18T18:41:31.255Z,17.00
2019-02-18T18:44:00.141Z,23.17
2019-02-18T18:46:28.923Z,19.87
2019-02-18T18:48:57.562Z,21.63
2019-02-18T18:51:26.218Z,17.90
2019-02-18T18:53:55.226Z,19.03
2019-02-18T18:56:23.977Z,22.70
2019-02-18T18:58:52.745Z,27.90
2019-02-18T19:01:21.544Z,20.80
2019-02-18T19:03:50.266Z,28.57
2019-02-18T19:06:18.907Z,26.03
2019-02-18T19:08:50.887Z,24.00
2019-02-18T19:11:19.340Z,21.67
2019-02-18T19:13:48.105Z,24.50
2019-02-18T19:16:16.817Z,20.77
2019-02-18T19:18:45.608Z,25.57
2019-02-18T19:21:14.367Z,18.17
2019-02-18T19:23:43.123Z,22.50
2019-02-18T19:26:11.947Z,18.27
2019-02-18T19:28:40.635Z,14.77
2019-02-18T19:31:09.424Z,22.50
2019-02-18T19:33:38.552Z,20.80
2019-02-18T19:36:07.290Z,21.20
2019-02-18T19:38:35.987Z,21.03
2019-02-18T19:41:04.749Z,19.50
2019-02-18T19:43:33.459Z,19.97
2019-02-18T19:46:02.220Z,17.23
2019-02-18T19:48:30.907Z,20.88
2019-02-18T19:50:59.574Z,20.80
2019-02-18T19:53:28.453Z,24.43
2019-02-18T19:55:57.172Z,19.57
2019-02-18T19:58:25.916Z,17.77
2019-02-18T20:00:54.668Z,22.30
2019-02-18T20:03:23.494Z,17.73
2019-02-18T20:05:52.264Z,19.98
2019-02-18T20:08:21.163Z,21.00
2019-02-18T20:10:49.803Z,21.45
2019-02-18T20:13:18.490Z,23.12
2019-02-18T20:15:47.278Z,19.12
2019-02-18T20:18:15.994Z,26.25
2019-02-18T20:20:44.727Z,19.25
2019-02-18T20:23:13.738Z,24.70
2019-02-18T20:25:42.498Z,26.23
2019-02-18T20:28:11.253Z,22.27
2019-02-18T20:30:40.099Z,17.85
2019-02-18T20:33:08.825Z,19.73
2019-02-18T20:35:37.561Z,26.55
2019-02-18T20:38:06.525Z,23.73
2019-02-18T20:40:35.202Z,19.57
2019-02-18T20:43:03.902Z,23.18
2019-02-18T20:45:32.623Z,19.85
2019-02-18T20:48:01.440Z,22.85
2019-02-18T20:50:30.202Z,22.82
2019-02-18T20:52:59.334Z,17.50
2019-02-18T20:55:28.120Z,17.87
2019-02-18T20:57:56.944Z,20.08
2019-02-18T21:00:25.766Z,25.37
2019-02-18T21:02:54.504Z,22.70
2019-02-18T21:05:23.276Z,20.35
2019-02-18T21:07:52.260Z,24.10
2019-02-18T21:10:20.948Z,26.42
2019-02-18T21:12:49.722Z,24.02
2019-02-18T21:15:18.510Z,25.10
2019-02-18T21:17:47.308Z,29.05
2019-02-18T21:20:16.040Z,26.87
2019-02-18T21:22:44.782Z,27.48
2019-02-18T21:25:13.576Z,25.97
2019-02-18T21:27:42.279Z,24.63
2019-02-18T21:30:11.319Z,26.75
2019-02-18T21:32:40.105Z,28.50
2019-02-18T21:35:08.800Z,28.12
2019-02-18T21:37:37.530Z,25.68
2019-02-18T21:40:09.072Z,30.35
2019-02-18T21:42:37.858Z,24.87
2019-02-18T21:45:06.660Z,30.35
2019-02-18T21:47:35.438Z,27.52
2019-02-18T21:50:04.240Z,28.38
2019-02-18T21:52:32.940Z,37.50
2019-02-18T21:55:01.542Z,30.88
2019-02-18T21:57:30.371Z,32.25
2019-02-18T21:59:59.117Z,26.82
2019-02-18T22:02:27.864Z,26.52
2019-02-18T22:04:56.653Z,27.82
2019-02-18T22:07:25.308Z,27.17
2019-02-18T22:09:54.293Z,32.75
2019-02-18T22:12:22.994Z,31.17
2019-02-18T22:14:51.807Z,32.63
2019-02-18T22:17:20.570Z,31.17
2019-02-18T22:19:49.266Z,31.68
2019-02-18T22:22:17.995Z,25.65
2019-02-18T22:24:46.687Z,31.80
2019-02-18T22:27:15.371Z,38.55
2019-02-18T22:29:44.048Z,26.48
2019-02-18T22:32:12.840Z,25.20
2019-02-18T22:34:41.703Z,26.80
2019-02-18T22:37:10.424Z,27.32
2019-02-18T22:39:39.139Z,27.58
2019-02-18T22:42:07.956Z,32.00
2019-02-18T22:44:41.918Z,31.33
2019-02-18T22:47:07.936Z,24.25
2019-02-18T22:49:36.688Z,29.95
2019-02-18T22:52:05.404Z,27.58
2019-02-18T22:54:34.163Z,25.48
2019-02-18T22:57:02.851Z,31.02
2019-02-18T22:59:31.741Z,35.10
2019-02-18T23:02:00.460Z,30.17
2019-02-18T23:04:29.140Z,27.05
2019-02-18T23:06:57.906Z,29.72
2019-02-18T23:09:26.608Z,29.80
2019-02-18T23:11:55.240Z,31.55
2019-02-18T23:14:23.907Z,35.83
2019-02-18T23:16:52.570Z,36.42
2019-02-18T23:19:21.184Z,32.80
2019-02-18T23:21:49.892Z,33.30
2019-02-18T23:24:18.495Z,36.38
2019-02-18T23:26:47.103Z,32.93
2019-02-18T23:29:15.789Z,34.10
2019-02-18T23:31:44.686Z,34.83
2019-02-18T23:34:13.375Z,30.60
2019-02-18T23:36:42.064Z,28.57
2019-02-18T23:39:10.856Z,34.40
2019-02-18T23:41:39.622Z,34.20
2019-02-18T23:44:08.192Z,26.50
2019-02-18T23:46:36.916Z,34.83
2019-02-18T23:49:05.938Z,35.10
2019-02-18T23:51:34.655Z,34.75
2019-02-18T23:54:03.288Z,29.10
2019-02-18T23:56:31.953Z,36.28
2019-02-18T23:59:00.699Z,30.60
